Latest Weather Observations for Albury

IDN60801

Issued at 6:32 am EST Sunday 30 August 2015 (issued every 30 minutes, with the page automatically refreshed every 10 minutes)

About weather observations | Map of weather stations | Latest weather observations for NSW | Other Formats
Station Details ID: 072160 Name: ALBURY AIRPORT AWS Lat: -36.07 Lon: 146.95 Height: 163.5 m
Data from the previous 72 hours. | See also: Recent months at Albury
Date/Time
EST
Temp
°C
App
Temp
°C
Dew
Point
Rel
Hum
%
Delta-T
°C
Wind Press
QNH
hPa
Press
MSL
hPa
Rain
since 9 am
mm
Dir
 
Spd
km/h
Gust
km/h
Spd
kts
Gust
kts
30/06:30am 1.7 -0.1 1.3 97 0.2 CALM 0 0 0 0 1022.3 1022.5 0.2
30/06:00am 1.8 0.0 1.2 96 0.2 CALM 0 0 0 0 1021.9 1022.2 0.2
30/05:30am 2.2 0.5 1.8 97 0.2 CALM 0 0 0 0 1021.9 1022.2 0.2
30/05:00am 3.0 1.4 2.7 98 0.1 CALM 0 0 0 0 1021.8 1022.1 0.2
30/04:30am 2.3 -0.1 2.0 98 0.1 S 4 6 2 3 1021.8 1022.1 0.2
30/04:00am 2.7 1.1 2.3 97 0.2 CALM 0 0 0 0 1021.7 1022.0 0.2
30/03:30am 3.3 1.8 3.0 98 0.1 CALM 0 0 0 0 1021.7 1022.0 0.2
30/03:00am 3.0 1.1 2.6 97 0.2 NNE 2 6 1 3 1022.0 1022.3 0.2
30/02:30am 3.2 1.6 2.6 96 0.2 CALM 0 0 0 0 1022.2 1022.4 0.2
30/02:00am 3.5 2.0 2.9 96 0.2 CALM 0 0 0 0 1022.4 1022.6 0.2
30/01:30am 3.7 1.0 2.5 92 0.5 ENE 6 6 3 3 1022.6 1022.8 0.2
30/01:00am 4.5 1.9 3.2 91 0.5 ENE 6 9 3 5 1022.7 1022.9 0.2
30/12:30am 5.4 3.6 3.7 89 0.7 ESE 2 6 1 3 1022.8 1023.0 0.2
30/12:00am 6.7 5.0 4.2 84 1.1 NNW 2 6 1 3 1022.7 1022.9 0.2
 
Date/Time
EST
Temp
°C
App
Temp
°C
Dew
Point
Rel
Hum
%
Delta-T
°C
Wind Press
QNH
hPa
Press
MSL
hPa
Rain
since 9 am
mm
Dir
 
Spd
km/h
Gust
km/h
Spd
kts
Gust
kts
29/11:30pm 6.7 4.1 4.2 84 1.1 WSW 7 11 4 6 1022.7 1022.9 0.2
29/11:00pm 7.2 3.9 4.3 82 1.3 WSW 11 15 6 8 1022.7 1022.9 0.2
29/10:30pm 6.8 3.4 4.1 83 1.2 W 11 13 6 7 1022.8 1023.0 0.2
29/10:00pm 7.0 4.0 4.1 82 1.3 NNW 9 11 5 6 1022.9 1023.1 0.2
29/09:30pm 7.6 3.9 4.2 79 1.5 W 13 17 7 9 1022.9 1023.1 0.2
29/09:00pm 7.1 3.7 4.1 81 1.3 W 11 13 6 7 1022.8 1023.0 0.2
29/08:30pm 8.1 5.1 4.1 76 1.8 WSW 9 11 5 6 1022.8 1023.0 0.2
29/08:00pm 8.6 4.1 4.2 74 1.9 W 17 22 9 12 1022.6 1022.8 0.2
29/07:30pm 9.2 4.7 4.4 72 2.1 WSW 17 22 9 12 1022.6 1022.8 0.2
29/07:00pm 9.4 4.9 4.2 70 2.3 W 17 24 9 13 1022.6 1022.8 0.2
29/06:30pm 9.8 5.3 4.4 69 2.4 W 17 22 9 12 1022.4 1022.6 0.2
29/06:00pm 10.4 6.2 3.7 63 3.0 W 15 19 8 10 1022.2 1022.4 0.2
29/05:30pm 11.5 6.5 3.5 58 3.6 W 19 24 10 13 1022.0 1022.3 0.2
29/05:00pm 12.4 7.4 3.6 55 3.9 WSW 19 30 10 16 1021.8 1022.1 0.2
29/04:30pm 12.8 7.8 3.5 53 4.2 W 19 28 10 15 1021.7 1022.0 0.2
29/04:00pm 13.0 7.9 2.8 50 4.5 WSW 19 26 10 14 1021.8 1022.1 0.2
29/03:30pm 13.3 8.0 2.8 49 4.7 W 20 28 11 15 1021.8 1022.1 0.2
29/03:00pm 13.6 8.7 2.2 46 5.0 WSW 17 28 9 15 1021.8 1022.1 0.2
29/02:30pm 13.3 8.3 1.3 44 5.2 WSW 17 24 9 13 1021.8 1022.1 0.2
29/02:00pm 13.0 8.9 2.5 49 4.6 WSW 13 22 7 12 1022.0 1022.3 0.2
29/01:30pm 12.4 7.0 1.4 47 4.7 W 19 26 10 14 1022.5 1022.7 0.2
29/01:00pm 12.3 7.1 2.5 51 4.3 W 19 30 10 16 1022.7 1022.9 0.0
29/12:30pm 11.6 8.5 3.6 58 3.6 W 9 17 5 9 1023.2 1023.4 0.0
29/12:00pm 10.9 7.5 4.1 63 3.0 WSW 11 19 6 10 1023.6 1023.8 0.0
29/11:30am 9.9 7.9 4.5 69 2.4 NW 4 7 2 4 1024.2 1024.5 0.0
29/11:16am 9.1 7.7 5.3 77 1.7 S 2 6 1 3 1024.5 1024.8 0.0
29/11:00am 8.8 6.2 4.4 74 1.9 E 7 11 4 6 1024.6 1024.9 0.0
29/10:56am 9.0 6.6 5.4 78 1.6 E 7 11 4 6 1024.6 1024.9 0.0
29/10:54am 9.2 6.8 5.4 77 1.7 ENE 7 11 4 6 1024.6 1024.9 0.0
29/10:38am 8.2 5.7 4.8 79 1.5 NE 7 11 4 6 1024.6 1024.9 0.0
29/10:30am 8.7 6.6 5.6 81 1.4 NE 6 11 3 6 1024.6 1024.9 0.0
29/10:00am 7.5 5.5 6.3 92 0.5 E 6 9 3 5 1024.7 1025.0 0.0
29/09:30am 5.6 3.3 5.5 99 0.0 SW 7 11 4 6 1024.8 1025.1 0.0
29/09:00am 5.1 2.8 5.0 99 0.0 W 6 7 3 4 1024.7 1025.0 0.0
29/08:57am 5.1 2.8 5.0 99 0.0 WSW 6 9 3 5 1024.7 1025.0 0.0
29/08:30am 4.6 2.2 4.5 99 0.0 W 6 9 3 5 1024.5 1024.8 0.0
29/08:00am 3.5 2.1 3.4 99 0.0 CALM 0 0 0 0 1024.3 1024.6 0.0
29/07:30am 2.7 0.0 2.6 99 0.0 N 6 9 3 5 1024.2 1024.5 0.0
29/07:00am 2.6 1.0 2.5 99 0.0 CALM 0 0 0 0 1023.9 1024.2 0.0
29/06:30am 2.5 0.5 2.4 99 0.0 ESE 2 7 1 4 1023.4 1023.6 0.0
29/06:00am 2.1 0.4 2.0 99 0.0 CALM 0 0 0 0 1023.3 1023.5 0.0
29/05:35am 1.3 -1.3 1.0 98 0.1 NNW 4 7 2 4 1023.0 1023.2 0.0
29/05:30am 1.5 -0.7 1.2 98 0.1 ESE 2 7 1 4 1023.0 1023.2 0.0
29/05:17am 1.5 -0.3 1.2 98 0.1 CALM 0 0 0 0 1022.9 1023.1 0.0
29/05:15am 1.6 -0.2 1.3 98 0.1 CALM 0 0 0 0 1022.9 1023.1 0.0
29/05:00am 2.1 0.4 2.0 99 0.0 CALM 0 0 0 0 1022.7 1022.9 0.0
29/04:52am 2.0 0.3 1.9 99 0.0 CALM 0 0 0 0 1022.7 1022.9 0.0
29/04:46am 2.1 0.4 2.0 99 0.0 CALM 0 0 0 0 1022.7 1022.9 0.0
29/04:30am 2.8 1.2 2.7 99 0.0 CALM 0 0 0 0 1022.7 1022.9 0.0
29/04:00am 3.3 1.8 3.2 99 0.0 CALM 0 0 0 0 1022.6 1022.8 0.0
29/03:35am 2.9 1.3 2.6 98 0.1 CALM 0 0 0 0 1022.5 1022.7 0.0
29/03:30am 3.4 1.9 3.1 98 0.1 CALM 0 0 0 0 1022.5 1022.7 0.0
29/03:00am 3.2 1.7 2.8 97 0.2 CALM 0 0 0 0 1022.8 1023.0 0.0
29/02:30am 4.2 2.9 3.9 98 0.1 CALM 0 0 0 0 1023.0 1023.2 0.0
29/02:00am 4.0 2.6 3.4 96 0.2 CALM 0 0 0 0 1023.2 1023.4 0.0
29/01:30am 4.6 2.0 4.2 97 0.2 NNE 7 9 4 5 1023.3 1023.5 0.0
29/01:00am 4.5 3.2 4.1 97 0.2 CALM 0 0 0 0 1023.4 1023.6 0.0
29/12:30am 4.7 3.4 4.0 95 0.3 CALM 0 0 0 0 1023.1 1023.3 0.0
29/12:00am 5.7 3.8 5.1 96 0.3 NNE 4 6 2 3 1023.1 1023.3 0.0
 
Date/Time
EST
Temp
°C
App
Temp
°C
Dew
Point
Rel
Hum
%
Delta-T
°C
Wind Press
QNH
hPa
Press
MSL
hPa
Rain
since 9 am
mm
Dir
 
Spd
km/h
Gust
km/h
Spd
kts
Gust
kts
28/11:30pm 5.5 4.0 4.8 95 0.3 ENE 2 6 1 3 1023.1 1023.3 0.0
28/11:00pm 6.3 4.5 5.6 95 0.3 SE 4 7 2 4 1023.2 1023.4 0.0
28/10:30pm 6.5 5.5 5.5 93 0.4 CALM 0 2 0 1 1023.2 1023.4 0.0
28/10:00pm 6.9 4.7 5.4 90 0.7 NE 6 9 3 5 1023.2 1023.4 0.0
28/09:30pm 7.5 5.4 5.6 88 0.9 ENE 6 9 3 5 1023.0 1023.2 0.0
28/09:00pm 8.4 7.3 5.3 81 1.4 CALM 0 7 0 4 1022.8 1023.0 0.0
28/08:30pm 9.4 7.2 5.4 76 1.8 WNW 6 9 3 5 1022.7 1022.9 0.0
28/08:00pm 10.2 7.2 5.8 74 2.0 NW 11 13 6 7 1022.6 1022.8 0.0
28/07:30pm 10.5 7.4 5.7 72 2.2 NW 11 15 6 8 1022.6 1022.8 0.0
28/07:00pm 10.4 7.3 5.6 72 2.2 NW 11 13 6 7 1022.4 1022.6 0.0
28/06:30pm 11.1 8.1 5.8 70 2.5 NW 11 13 6 7 1022.3 1022.5 0.0
28/06:00pm 11.7 8.3 5.8 67 2.8 WNW 13 17 7 9 1022.0 1022.3 0.0
28/05:30pm 12.9 8.7 5.8 62 3.4 WNW 17 22 9 12 1021.7 1022.0 0.0
28/05:00pm 13.9 9.3 5.8 58 3.9 WNW 19 24 10 13 1021.2 1021.5 0.0
28/04:30pm 14.7 10.3 4.7 51 4.7 WNW 17 24 9 13 1021.1 1021.4 0.0
28/04:00pm 15.1 10.7 5.0 51 4.8 WNW 17 22 9 12 1021.2 1021.5 0.0
28/03:30pm 15.7 11.9 5.9 52 4.8 W 15 20 8 11 1021.2 1021.5 0.0
28/03:00pm 16.1 12.6 7.1 55 4.5 W 15 20 8 11 1021.2 1021.5 0.0
28/02:30pm 14.6 12.6 6.4 58 4.0 WNW 6 9 3 5 1021.2 1021.5 0.0
28/02:00pm 15.2 12.7 6.7 57 4.2 NNW 9 15 5 8 1021.6 1021.9 0.0
28/01:30pm 15.5 13.7 8.0 61 3.8 N 7 11 4 6 1021.6 1021.9 0.0
28/01:00pm 13.6 11.3 5.7 59 3.7 ESE 7 13 4 7 1021.9 1022.2 0.0
28/12:30pm 14.0 12.3 8.2 68 2.9 SSE 7 9 4 5 1022.5 1022.7 0.0
28/12:00pm 13.1 11.5 7.8 70 2.6 E 6 9 3 5 1023.0 1023.2 0.0
28/11:30am 13.0 11.9 8.3 73 2.4 E 4 9 2 5 1023.3 1023.5 0.0
28/11:00am 11.3 10.4 7.6 78 1.8 NE 2 6 1 3 1023.5 1023.7 0.0
28/10:41am 10.6 8.9 7.5 81 1.5 SE 6 7 3 4 1023.5 1023.7 0.0
28/10:32am 10.1 8.4 7.5 84 1.3 E 6 7 3 4 1023.4 1023.6 0.0
28/10:30am 10.3 8.6 7.7 84 1.3 E 6 7 3 4 1023.4 1023.6 0.0
28/10:22am 10.0 9.1 7.9 87 1.0 ENE 2 7 1 4 1023.5 1023.7 0.0
28/10:00am 8.8 7.9 7.7 93 0.5 S 2 9 1 5 1023.5 1023.7 0.0
28/09:30am 8.2 7.4 8.1 99 0.0 NNE 2 6 1 3 1023.2 1023.4 0.0
28/09:03am 7.8 7.3 7.7 99 0.0 CALM 0 6 0 3 1023.2 1023.4 0.0
28/09:00am 7.7 7.1 7.6 99 0.0 CALM 0 6 0 3 1023.2 1023.4 0.0
28/08:30am 7.1 6.0 7.0 99 0.0 SW 2 6 1 3 1023.0 1023.2 0.0
28/08:11am 6.4 4.8 6.3 99 0.0 SSW 4 6 2 3 1023.0 1023.2 0.0
28/08:00am 6.0 5.1 5.9 99 0.0 CALM 0 0 0 0 1022.7 1022.9 0.0
28/07:46am 5.2 3.7 5.1 99 0.0 NE 2 6 1 3 1022.5 1022.7 0.0
28/07:30am 4.6 3.4 4.5 99 0.0 CALM 0 0 0 0 1022.4 1022.6 0.0
28/07:00am 4.5 3.2 4.2 98 0.1 CALM 0 0 0 0 1021.9 1022.2 0.0
28/06:30am 5.0 3.9 4.9 99 0.0 CALM 0 0 0 0 1021.6 1021.9 0.0
28/06:10am 5.3 4.2 5.2 99 0.0 CALM 0 0 0 0 1021.3 1021.6 0.0
28/06:00am 5.1 4.0 5.0 99 0.0 CALM 0 0 0 0 1021.2 1021.5 0.0
28/05:30am 5.3 4.2 5.0 98 0.1 CALM 0 0 0 0 1020.8 1021.1 0.0
28/05:13am 5.8 4.8 5.5 98 0.1 CALM 0 0 0 0 1020.6 1020.9 0.0
28/05:00am 5.5 3.3 5.1 97 0.2 NE 6 9 3 5 1020.6 1020.9 0.0
28/04:48am 5.9 3.8 5.6 98 0.1 NE 6 9 3 5 1020.5 1020.8 0.0
28/04:30am 6.4 5.5 6.0 97 0.2 CALM 0 0 0 0 1020.3 1020.6 0.0
28/04:14am 6.1 5.1 5.4 95 0.3 CALM 0 0 0 0 1020.1 1020.4 0.0
28/04:00am 6.6 5.7 6.0 96 0.3 CALM 0 0 0 0 1020.1 1020.4 0.0
28/03:30am 7.4 5.5 6.8 96 0.3 WSW 6 7 3 4 1019.9 1020.2 0.0
28/03:00am 7.8 7.1 6.9 94 0.4 CALM 0 0 0 0 1019.8 1020.1 0.0
28/02:30am 8.3 7.7 7.2 93 0.5 CALM 0 0 0 0 1019.8 1020.1 0.0
28/02:00am 8.5 7.9 7.4 93 0.5 CALM 0 0 0 0 1020.0 1020.3 0.0
28/01:30am 8.4 7.7 7.0 91 0.7 CALM 0 0 0 0 1020.0 1020.3 0.0
28/01:00am 8.2 7.1 6.7 90 0.7 W 2 6 1 3 1019.9 1020.2 0.0
28/12:30am 8.6 7.8 6.4 86 1.0 CALM 0 0 0 0 1019.7 1020.0 0.0
28/12:00am 9.1 7.1 7.1 87 0.9 WNW 7 11 4 6 1019.7 1020.0 0.0
 
Date/Time
EST
Temp
°C
App
Temp
°C
Dew
Point
Rel
Hum
%
Delta-T
°C
Wind Press
QNH
hPa
Press
MSL
hPa
Rain
since 9 am
mm
Dir
 
Spd
km/h
Gust
km/h
Spd
kts
Gust
kts
27/11:30pm 9.1 6.3 7.1 87 0.9 WNW 11 13 6 7 1019.7 1020.0 0.0
27/11:00pm 9.1 6.3 7.1 87 0.9 W 11 13 6 7 1019.9 1020.2 0.0
27/10:30pm 9.3 6.8 6.4 82 1.4 WNW 9 15 5 8 1019.8 1020.1 0.0
27/10:00pm 9.4 5.2 5.9 79 1.6 W 17 20 9 11 1019.6 1019.9 0.0
27/09:30pm 9.4 5.6 5.9 79 1.6 W 15 20 8 11 1019.8 1020.1 0.0
27/09:00pm 9.3 5.6 6.2 81 1.4 WNW 15 20 8 11 1019.7 1020.0 0.0
27/08:30pm 9.9 6.3 6.6 80 1.6 WSW 15 20 8 11 1019.7 1020.0 0.0
27/08:00pm 10.3 7.2 7.2 81 1.5 WNW 13 17 7 9 1019.5 1019.8 0.0
27/07:30pm 10.3 7.2 7.4 82 1.4 WNW 13 20 7 11 1019.2 1019.5 0.0
27/07:00pm 11.0 7.6 7.5 79 1.7 W 15 20 8 11 1019.0 1019.3 0.0
27/06:30pm 11.6 8.6 7.9 78 1.8 WSW 13 19 7 10 1018.7 1019.0 0.0
27/06:00pm 11.9 9.0 8.2 78 1.8 WSW 13 17 7 9 1018.4 1018.6 0.0
27/05:30pm 12.4 9.4 7.9 74 2.2 W 13 19 7 10 1018.0 1018.2 0.0
27/05:00pm 13.0 10.0 7.9 71 2.5 WSW 13 19 7 10 1017.6 1017.8 0.0
27/04:30pm 12.8 7.7 7.5 70 2.6 W 24 30 13 16 1017.4 1017.6 0.0
27/04:00pm 13.5 10.0 8.8 73 2.4 W 17 22 9 12 1017.5 1017.7 0.0
27/03:30pm 11.8 7.9 9.5 86 1.2 WSW 20 28 11 15 1017.7 1017.9 0.0
27/03:00pm 12.3 5.7 7.6 73 2.3 W 32 39 17 21 1017.7 1017.9 0.0
27/02:49pm 14.0 7.3 8.0 67 3.0 W 33 44 18 24 1017.6 1017.8 0.0
27/02:30pm 15.3 11.7 8.5 64 3.5 W 17 26 9 14 1017.4 1017.6 0.0
27/02:00pm 15.7 12.3 9.1 65 3.4 W 17 26 9 14 1017.7 1017.9 0.0
27/01:30pm 14.9 10.7 8.4 65 3.3 W 20 26 11 14 1018.0 1018.2 0.0
27/01:00pm 14.5 10.7 8.9 69 2.9 W 19 24 10 13 1018.4 1018.6 0.0
27/12:30pm 14.4 11.2 8.4 67 3.0 WNW 15 22 8 12 1018.7 1019.0 0.0
27/12:00pm 13.6 10.7 9.5 76 2.1 W 15 20 8 11 1019.1 1019.4 0.0
27/11:30am 13.3 9.5 9.0 75 2.2 W 19 24 10 13 1019.5 1019.8 0.0
27/11:00am 13.0 10.4 9.4 79 1.8 WSW 13 19 7 10 1020.0 1020.3 0.0
27/10:30am 12.1 9.8 9.1 82 1.5 WSW 11 13 6 7 1020.2 1020.5 0.0
27/10:00am 11.8 10.2 8.8 82 1.5 WSW 7 13 4 7 1020.1 1020.4 0.0
27/09:32am 11.3 9.3 8.7 84 1.3 WNW 9 11 5 6 1020.4 1020.7 0.0
27/09:30am 11.3 9.4 8.9 85 1.2 WNW 9 13 5 7 1020.4 1020.7 0.0
27/09:00am 10.7 8.6 9.8 94 0.5 W 11 13 6 7 1020.4 1020.7 10.6
27/08:42am 10.5 10.6 10.3 99 0.1 CALM 0 0 0 0 1020.4 1020.7 10.6
27/08:30am 10.6 10.8 10.4 99 0.1 CALM 0 0 0 0 1020.4 1020.7 10.6
27/08:00am 10.3 9.3 10.3 100 0.0 E 6 9 3 5 1020.4 1020.7 10.4
27/07:30am 10.0 8.9 9.9 99 0.1 ENE 6 7 3 4 1020.4 1020.7 9.8
27/07:00am 9.9 8.6 9.8 99 0.1 NNE 7 7 4 4 1020.0 1020.3 9.8

Other Formats:

Comma delimited format used in spreadsheet applications
http://www.bom.gov.au/fwo/IDN60801/IDN60801.95896.axf

JavaScript Object Notation format (JSON) in row-major order
http://www.bom.gov.au/fwo/IDN60801/IDN60801.95896.json